Time;durP1;ratioP1;P1;durP2;ratioP2;P2;SDS_P1;SDS_P2;PMS_P1;PMS_P2;Temp;Humidity;BMP_temperature;BMP_pressure;BME280_temperature;BME280_humidity;BME280_pressure;Samples;Min_cycle;Max_cycle;Signal;HPM_P1;HPM_P2
2022/04/06 00:01:44;;;;;;;6.47;5.13;;;;;;;;;;4994191;28;20278;-84
2022/04/06 00:04:11;;;;;;;5.33;4.83;;;;;;;;;;4994673;28;20209;-83
2022/04/06 00:06:39;;;;;;;8.40;7.60;;;;;;;;;;4994329;28;20231;-83
2022/04/06 00:09:06;;;;;;;7.77;7.07;;;;;;;;;;4994830;28;20217;-83
2022/04/06 00:11:33;;;;;;;8.63;5.93;;;;;;;;;;4993973;28;20236;-83
2022/04/06 00:14:01;;;;;;;9.17;7.40;;;;;;;;;;4993936;28;20223;-83
2022/04/06 00:16:28;;;;;;;9.03;8.23;;;;;;;;;;4993810;28;20240;-82
2022/04/06 00:18:55;;;;;;;8.70;7.83;;;;;;;;;;4994149;28;20196;-83
2022/04/06 00:21:23;;;;;;;8.90;7.77;;;;;;;;;;4993562;28;20733;-83
2022/04/06 00:23:51;;;;;;;8.20;7.37;;;;;;;;;;4994280;28;20204;-83
2022/04/06 00:26:18;;;;;;;7.17;6.47;;;;;;;;;;4993883;28;20235;-83
2022/04/06 00:28:45;;;;;;;7.47;6.77;;;;;;;;;;4993887;28;20215;-83
2022/04/06 00:31:13;;;;;;;5.70;5.17;;;;;;;;;;4993531;28;20239;-83
2022/04/06 00:33:41;;;;;;;6.77;6.10;;;;;;;;;;4993664;28;20247;-83
2022/04/06 00:36:08;;;;;;;8.13;7.17;;;;;;;;;;4993700;28;20235;-83
2022/04/06 00:38:35;;;;;;;7.30;6.60;;;;;;;;;;4993949;28;20215;-83
2022/04/06 00:41:03;;;;;;;6.80;6.10;;;;;;;;;;4993798;28;20893;-83
2022/04/06 00:43:30;;;;;;;8.13;6.97;;;;;;;;;;4994254;28;20208;-83
2022/04/06 00:45:57;;;;;;;8.27;6.93;;;;;;;;;;4994103;28;20239;-83
2022/04/06 00:48:24;;;;;;;6.53;5.93;;;;;;;;;;4993476;28;20211;-83
2022/04/06 00:50:51;;;;;;;7.67;6.97;;;;;;;;;;4993490;28;20727;-83
2022/04/06 00:53:19;;;;;;;7.53;6.83;;;;;;;;;;4993884;28;20207;-83
2022/04/06 00:55:46;;;;;;;9.27;6.67;;;;;;;;;;4993511;28;20239;-83
2022/04/06 00:58:14;;;;;;;7.97;6.30;;;;;;;;;;4993630;28;20713;-83
2022/04/06 01:00:42;;;;;;;7.47;6.73;;;;;;;;;;4993241;28;20256;-83
2022/04/06 01:03:09;;;;;;;6.97;6.27;;;;;;;;;;4993830;28;20228;-84
2022/04/06 01:05:36;;;;;;;5.20;4.67;;;;;;;;;;4992323;28;20722;-83
2022/04/06 01:08:03;;;;;;;8.40;7.60;;;;;;;;;;4991796;28;20673;-84
2022/04/06 01:10:30;;;;;;;7.77;6.97;;;;;;;;;;4978004;28;20236;-83
2022/04/06 01:12:57;;;;;;;7.53;6.30;;;;;;;;;;4979441;28;20200;-83
2022/04/06 01:15:26;;;;;;;6.80;5.70;;;;;;;;;;4992315;28;20246;-83
2022/04/06 01:17:53;;;;;;;8.70;7.33;;;;;;;;;;4993391;28;20207;-83
2022/04/06 01:20:21;;;;;;;7.33;6.10;;;;;;;;;;4996384;28;20243;-83
2022/04/06 01:22:49;;;;;;;9.63;7.20;;;;;;;;;;4997928;28;20204;-83
2022/04/06 01:25:16;;;;;;;7.57;6.77;;;;;;;;;;4997624;28;20236;-83
2022/04/06 01:27:43;;;;;;;7.57;6.73;;;;;;;;;;4997575;28;20208;-83
2022/04/06 01:30:10;;;;;;;7.73;6.93;;;;;;;;;;4996990;28;20219;-83
2022/04/06 01:32:38;;;;;;;7.80;7.10;;;;;;;;;;4997491;28;20219;-83
2022/04/06 01:35:05;;;;;;;23.43;17.47;;;;;;;;;;4996650;28;20330;-83
2022/04/06 01:37:34;;;;;;;7.60;6.90;;;;;;;;;;4997596;28;20212;-83
2022/04/06 01:40:03;;;;;;;8.27;7.33;;;;;;;;;;4996230;28;20200;-83
2022/04/06 01:42:30;;;;;;;8.40;7.50;;;;;;;;;;4997160;28;20227;-83
2022/04/06 01:44:58;;;;;;;8.97;7.20;;;;;;;;;;4996910;28;20214;-83
2022/04/06 01:47:25;;;;;;;9.20;8.10;;;;;;;;;;4996952;28;20214;-83
2022/04/06 01:52:51;;;;;;;8.07;6.80;;;;;;;;;;4936729;29;20212;-83
2022/04/06 01:55:19;;;;;;;6.17;5.60;;;;;;;;;;4947402;28;20237;-84
2022/04/06 01:57:46;;;;;;;9.50;8.13;;;;;;;;;;4974064;28;20211;-83
2022/04/06 02:00:15;;;;;;;9.77;8.63;;;;;;;;;;4996081;28;20240;-83
2022/04/06 02:02:43;;;;;;;10.00;9.00;;;;;;;;;;4996920;28;20295;-83
2022/04/06 02:05:12;;;;;;;9.53;8.57;;;;;;;;;;4996622;28;20208;-83
2022/04/06 02:07:39;;;;;;;8.93;8.03;;;;;;;;;;4996760;28;20201;-83
2022/04/06 02:10:06;;;;;;;10.27;8.80;;;;;;;;;;4996245;28;20298;-83
2022/04/06 02:12:35;;;;;;;10.13;9.07;;;;;;;;;;4996714;28;20300;-83
2022/04/06 02:15:02;;;;;;;9.37;8.47;;;;;;;;;;4996002;28;20231;-83
2022/04/06 02:17:30;;;;;;;8.53;7.47;;;;;;;;;;4996443;28;20212;-83
2022/04/06 02:19:57;;;;;;;10.37;9.27;;;;;;;;;;4996219;28;20572;-83
2022/04/06 02:22:24;;;;;;;9.80;8.03;;;;;;;;;;4997021;28;20235;-83
2022/04/06 02:24:51;;;;;;;8.57;7.60;;;;;;;;;;4995562;28;20227;-84
2022/04/06 02:27:19;;;;;;;10.17;9.10;;;;;;;;;;4996004;28;20215;-83
2022/04/06 02:29:47;;;;;;;9.23;8.33;;;;;;;;;;4995847;28;20204;-83
2022/04/06 02:32:14;;;;;;;11.40;9.57;;;;;;;;;;4994518;28;20247;-83
2022/04/06 02:34:41;;;;;;;10.13;8.83;;;;;;;;;;4996112;28;20224;-83
2022/04/06 02:37:09;;;;;;;9.17;8.27;;;;;;;;;;4995480;28;20258;-83
2022/04/06 02:39:36;;;;;;;9.53;8.10;;;;;;;;;;4995456;28;20562;-83
2022/04/06 02:42:04;;;;;;;8.97;7.37;;;;;;;;;;4996944;28;20239;-83
2022/04/06 02:44:31;;;;;;;10.07;7.50;;;;;;;;;;4996958;28;20654;-83
2022/04/06 02:47:00;;;;;;;8.80;7.90;;;;;;;;;;4995583;28;20236;-83
2022/04/06 02:49:27;;;;;;;9.50;7.87;;;;;;;;;;4997954;28;20678;-83
2022/04/06 02:51:54;;;;;;;9.80;7.93;;;;;;;;;;5017304;28;20250;-83
2022/04/06 02:54:21;;;;;;;9.53;7.37;;;;;;;;;;5017255;28;20200;-83
2022/04/06 02:56:48;;;;;;;9.10;8.07;;;;;;;;;;5017095;28;20243;-83
2022/04/06 02:59:15;;;;;;;6.33;5.67;;;;;;;;;;5014131;28;20205;-83
2022/04/06 03:01:42;;;;;;;10.93;7.27;;;;;;;;;;4997920;28;20672;-83
2022/04/06 03:04:11;;;;;;;6.03;5.43;;;;;;;;;;4996857;28;20216;-83
2022/04/06 03:06:39;;;;;;;7.77;6.90;;;;;;;;;;4996117;28;20235;-83
2022/04/06 03:09:06;;;;;;;7.67;6.97;;;;;;;;;;4996049;28;20270;-83
2022/04/06 03:11:33;;;;;;;7.83;5.67;;;;;;;;;;4995030;28;20268;-84
2022/04/06 03:14:00;;;;;;;7.77;6.47;;;;;;;;;;4995808;28;20709;-83
2022/04/06 03:16:27;;;;;;;6.37;5.37;;;;;;;;;;4994635;28;20255;-83
2022/04/06 03:18:54;;;;;;;8.23;7.27;;;;;;;;;;5000248;28;20207;-83
2022/04/06 03:21:23;;;;;;;7.43;6.57;;;;;;;;;;4994704;28;20246;-83
2022/04/06 03:23:51;;;;;;;10.13;7.00;;;;;;;;;;4995123;28;20208;-83
2022/04/06 03:26:18;;;;;;;9.97;7.93;;;;;;;;;;4994927;28;20240;-83
2022/04/06 03:28:45;;;;;;;10.43;7.77;;;;;;;;;;4994657;28;20208;-83
2022/04/06 03:31:12;;;;;;;6.43;5.67;;;;;;;;;;4994368;28;20240;-84
2022/04/06 03:33:39;;;;;;;7.77;6.90;;;;;;;;;;4994576;28;20223;-85
2022/04/06 03:36:06;;;;;;;8.20;6.80;;;;;;;;;;4994584;28;20240;-85
2022/04/06 03:38:35;;;;;;;8.20;6.77;;;;;;;;;;4994994;28;20581;-85
2022/04/06 03:41:02;;;;;;;9.10;7.27;;;;;;;;;;4994914;28;20240;-84
2022/04/06 03:43:30;;;;;;;9.73;7.10;;;;;;;;;;4994560;28;20220;-84
2022/04/06 03:45:58;;;;;;;5.67;4.87;;;;;;;;;;4994257;28;20243;-85
2022/04/06 03:48:25;;;;;;;8.03;7.20;;;;;;;;;;4994296;28;20693;-84
2022/04/06 03:50:52;;;;;;;8.10;7.30;;;;;;;;;;4994452;28;20701;-84
2022/04/06 03:53:19;;;;;;;7.87;6.80;;;;;;;;;;4995218;28;20728;-84
2022/04/06 03:55:47;;;;;;;8.63;6.90;;;;;;;;;;4994071;28;20251;-84
2022/04/06 03:58:14;;;;;;;11.47;6.70;;;;;;;;;;4994695;28;20208;-84
2022/04/06 04:00:42;;;;;;;7.63;6.43;;;;;;;;;;4993564;28;20328;-84
2022/04/06 04:03:09;;;;;;;8.90;7.80;;;;;;;;;;4994905;28;20266;-84
2022/04/06 04:05:36;;;;;;;11.43;8.40;;;;;;;;;;4992955;28;20708;-84
2022/04/06 04:08:03;;;;;;;7.90;7.10;;;;;;;;;;5004206;28;20576;-84
2022/04/06 04:10:30;;;;;;;8.40;7.43;;;;;;;;;;4993535;28;20236;-83
2022/04/06 04:12:59;;;;;;;9.17;7.73;;;;;;;;;;4994916;28;20672;-83
2022/04/06 04:15:26;;;;;;;14.50;8.07;;;;;;;;;;4993501;28;20625;-84
2022/04/06 04:17:53;;;;;;;10.17;8.57;;;;;;;;;;4994229;28;20197;-84
2022/04/06 04:20:20;;;;;;;10.87;7.50;;;;;;;;;;4993353;28;20236;-83
2022/04/06 04:22:47;;;;;;;10.67;8.67;;;;;;;;;;4994151;28;20219;-84
2022/04/06 04:25:14;;;;;;;8.37;6.97;;;;;;;;;;4992603;28;21438;-83
2022/04/06 04:27:42;;;;;;;9.17;7.57;;;;;;;;;;4996975;28;20208;-84
2022/04/06 04:30:11;;;;;;;9.03;7.53;;;;;;;;;;4992670;28;22797;-84
2022/04/06 04:32:38;;;;;;;10.77;8.83;;;;;;;;;;4993413;28;20575;-84
2022/04/06 04:35:07;;;;;;;10.10;7.83;;;;;;;;;;4993147;28;20231;-84
2022/04/06 04:37:34;;;;;;;10.60;7.70;;;;;;;;;;4993389;28;20258;-83
2022/04/06 04:40:02;;;;;;;12.47;7.97;;;;;;;;;;4992233;28;20215;-84
2022/04/06 04:42:29;;;;;;;8.20;7.03;;;;;;;;;;4993464;28;20228;-83
2022/04/06 04:44:56;;;;;;;7.80;6.77;;;;;;;;;;4994363;28;20216;-84
2022/04/06 04:47:25;;;;;;;7.10;5.70;;;;;;;;;;5003389;28;20203;-84
2022/04/06 04:49:52;;;;;;;8.07;7.03;;;;;;;;;;5012382;28;20203;-85
2022/04/06 04:52:19;;;;;;;8.83;6.67;;;;;;;;;;5012746;28;20742;-84
2022/04/06 04:54:46;;;;;;;7.87;6.27;;;;;;;;;;4994222;28;20203;-87
2022/04/06 04:57:13;;;;;;;7.60;6.87;;;;;;;;;;4992758;28;20688;-87
2022/04/06 04:59:40;;;;;;;7.47;6.17;;;;;;;;;;4993127;28;20204;-86
2022/04/06 05:02:08;;;;;;;7.77;6.97;;;;;;;;;;4992634;28;20736;-86
2022/04/06 05:04:36;;;;;;;7.60;6.77;;;;;;;;;;4993221;28;20215;-86
2022/04/06 05:07:03;;;;;;;8.10;7.30;;;;;;;;;;4993192;28;20228;-86
2022/04/06 05:09:31;;;;;;;8.10;7.03;;;;;;;;;;4992864;28;20259;-86
2022/04/06 05:11:58;;;;;;;10.83;7.47;;;;;;;;;;4992676;28;20240;-86
2022/04/06 05:14:27;;;;;;;9.20;7.03;;;;;;;;;;4992990;28;20212;-86
2022/04/06 05:16:54;;;;;;;8.27;6.90;;;;;;;;;;4992617;28;20610;-84
2022/04/06 05:19:21;;;;;;;9.30;8.10;;;;;;;;;;4992738;28;20208;-84
2022/04/06 05:21:49;;;;;;;8.77;7.77;;;;;;;;;;4992289;28;20583;-84
2022/04/06 05:24:16;;;;;;;9.87;8.17;;;;;;;;;;4992902;28;20215;-83
2022/04/06 05:26:43;;;;;;;8.80;7.90;;;;;;;;;;4991996;28;20238;-83
2022/04/06 05:29:10;;;;;;;9.07;7.97;;;;;;;;;;4992904;28;20232;-84
2022/04/06 05:31:37;;;;;;;9.33;7.43;;;;;;;;;;4991715;28;20656;-84
2022/04/06 05:34:04;;;;;;;12.37;7.77;;;;;;;;;;4992910;28;20196;-83
2022/04/06 05:36:31;;;;;;;12.20;8.30;;;;;;;;;;4991905;28;20705;-83
2022/04/06 05:39:00;;;;;;;10.20;7.40;;;;;;;;;;4989797;28;20208;-83
2022/04/06 05:41:27;;;;;;;10.33;7.80;;;;;;;;;;4985238;28;20235;-85
2022/04/06 05:43:55;;;;;;;9.83;7.83;;;;;;;;;;4992420;28;20212;-85
2022/04/06 05:46:22;;;;;;;11.23;7.60;;;;;;;;;;4994041;28;20722;-85
2022/04/06 05:48:49;;;;;;;10.67;8.70;;;;;;;;;;4992089;28;20204;-84
2022/04/06 05:51:16;;;;;;;9.50;8.50;;;;;;;;;;4991576;28;20256;-85
2022/04/06 05:53:43;;;;;;;10.60;7.93;;;;;;;;;;4992545;28;20239;-85
2022/04/06 05:56:12;;;;;;;9.23;7.87;;;;;;;;;;4992340;28;20247;-85
2022/04/06 05:58:39;;;;;;;9.93;7.83;;;;;;;;;;4986304;28;20732;-84
2022/04/06 06:01:06;;;;;;;9.53;7.20;;;;;;;;;;4983981;28;20251;-83
2022/04/06 06:03:33;;;;;;;12.00;8.40;;;;;;;;;;4992975;28;20208;-83
2022/04/06 06:06:00;;;;;;;10.97;8.53;;;;;;;;;;4993041;28;20232;-83
2022/04/06 06:08:27;;;;;;;11.30;9.07;;;;;;;;;;4996057;28;20567;-84
2022/04/06 06:10:55;;;;;;;9.00;7.30;;;;;;;;;;4999816;28;20712;-84
2022/04/06 06:13:23;;;;;;;9.30;7.50;;;;;;;;;;4999807;28;20566;-84
2022/04/06 06:15:51;;;;;;;10.97;8.40;;;;;;;;;;4998881;28;20236;-83
2022/04/06 06:18:18;;;;;;;10.63;7.97;;;;;;;;;;5000474;28;20216;-84
2022/04/06 06:20:45;;;;;;;9.63;8.10;;;;;;;;;;5000017;28;20243;-84
2022/04/06 06:23:12;;;;;;;12.53;7.90;;;;;;;;;;5008154;28;20215;-83
2022/04/06 06:25:39;;;;;;;9.43;7.47;;;;;;;;;;5003690;28;20235;-84
2022/04/06 06:28:06;;;;;;;9.07;8.17;;;;;;;;;;5001544;28;20208;-84
2022/04/06 06:30:35;;;;;;;10.00;7.03;;;;;;;;;;4996874;28;20240;-84
2022/04/06 06:33:02;;;;;;;10.47;8.20;;;;;;;;;;5010328;28;20225;-84
2022/04/06 06:35:29;;;;;;;10.93;8.07;;;;;;;;;;4997887;28;20235;-84
2022/04/06 06:37:57;;;;;;;8.57;7.40;;;;;;;;;;4980158;28;20208;-84
2022/04/06 06:40:25;;;;;;;10.60;7.40;;;;;;;;;;4978861;28;20236;-84
2022/04/06 06:42:53;;;;;;;11.60;8.43;;;;;;;;;;4979286;28;20212;-84
2022/04/06 06:45:20;;;;;;;10.40;8.70;;;;;;;;;;4978149;28;20599;-84
2022/04/06 06:47:48;;;;;;;9.97;7.70;;;;;;;;;;4979499;28;20213;-83
2022/04/06 06:50:16;;;;;;;12.23;7.90;;;;;;;;;;4998290;28;20243;-83
2022/04/06 06:52:43;;;;;;;10.30;7.20;;;;;;;;;;5000981;28;20284;-84
2022/04/06 06:55:11;;;;;;;9.17;7.33;;;;;;;;;;4984853;28;20631;-85
2022/04/06 06:57:38;;;;;;;9.37;6.80;;;;;;;;;;5004025;28;20314;-84
2022/04/06 07:00:07;;;;;;;11.57;7.10;;;;;;;;;;4997703;28;20216;-84
2022/04/06 07:02:34;;;;;;;8.87;6.50;;;;;;;;;;4987546;28;20209;-84
2022/04/06 07:05:02;;;;;;;8.20;6.67;;;;;;;;;;4980809;28;20216;-84
2022/04/06 07:07:29;;;;;;;8.23;6.67;;;;;;;;;;4997996;28;20208;-84
2022/04/06 07:09:57;;;;;;;11.73;7.37;;;;;;;;;;5003741;28;20188;-84
2022/04/06 07:12:24;;;;;;;11.77;7.67;;;;;;;;;;5025197;28;20227;-84
2022/04/06 07:14:51;;;;;;;9.70;7.30;;;;;;;;;;5016887;28;20216;-84
2022/04/06 07:17:19;;;;;;;9.93;7.90;;;;;;;;;;5013763;28;20235;-84
2022/04/06 07:19:46;;;;;;;13.93;8.00;;;;;;;;;;5015212;28;20203;-85
2022/04/06 07:22:14;;;;;;;12.70;8.13;;;;;;;;;;5014396;28;20617;-84
2022/04/06 07:24:41;;;;;;;9.93;7.53;;;;;;;;;;5014888;28;20676;-84
2022/04/06 07:27:08;;;;;;;11.90;8.93;;;;;;;;;;5014127;28;20246;-84
2022/04/06 07:29:35;;;;;;;12.67;8.13;;;;;;;;;;5014425;28;20207;-84
2022/04/06 07:32:02;;;;;;;10.77;7.53;;;;;;;;;;5014502;28;20250;-84
2022/04/06 07:34:30;;;;;;;12.17;8.83;;;;;;;;;;5014490;28;20210;-83
2022/04/06 07:36:57;;;;;;;10.80;8.30;;;;;;;;;;5013653;28;20238;-84
2022/04/06 07:39:27;;;;;;;13.50;9.17;;;;;;;;;;5013721;28;20207;-84
2022/04/06 07:41:56;;;;;;;10.07;6.87;;;;;;;;;;5013683;28;20734;-84
2022/04/06 07:44:23;;;;;;;7.07;6.37;;;;;;;;;;5014319;28;20270;-84
2022/04/06 07:46:50;;;;;;;8.90;6.20;;;;;;;;;;5013767;28;20591;-84
2022/04/06 07:49:17;;;;;;;9.60;6.30;;;;;;;;;;5014039;28;20240;-84
2022/04/06 07:51:45;;;;;;;9.70;5.77;;;;;;;;;;5007883;28;20247;-84
2022/04/06 07:54:13;;;;;;;11.13;6.53;;;;;;;;;;4997101;28;20380;-84
2022/04/06 07:56:42;;;;;;;9.67;6.30;;;;;;;;;;4993565;28;20247;-85
2022/04/06 07:59:09;;;;;;;8.43;6.00;;;;;;;;;;4994463;28;20200;-85
2022/04/06 08:01:36;;;;;;;7.23;6.10;;;;;;;;;;4993735;28;20342;-84
2022/04/06 08:04:03;;;;;;;9.80;6.53;;;;;;;;;;4994703;28;20212;-85
2022/04/06 08:06:30;;;;;;;11.53;6.43;;;;;;;;;;4993865;28;20231;-85
2022/04/06 08:08:59;;;;;;;13.50;6.40;;;;;;;;;;4994289;28;20208;-85
2022/04/06 08:11:26;;;;;;;9.17;6.10;;;;;;;;;;4993040;28;20244;-85
2022/04/06 08:13:54;;;;;;;8.63;6.07;;;;;;;;;;4994271;28;20208;-82
2022/04/06 08:16:21;;;;;;;9.10;5.50;;;;;;;;;;4992987;28;20262;-83
2022/04/06 08:18:48;;;;;;;8.77;5.70;;;;;;;;;;4993473;28;20684;-84
2022/04/06 08:21:16;;;;;;;8.53;5.73;;;;;;;;;;4993024;28;20246;-84
2022/04/06 08:23:43;;;;;;;8.90;5.67;;;;;;;;;;4994636;28;20215;-85
2022/04/06 08:26:10;;;;;;;9.87;5.90;;;;;;;;;;4993436;28;20236;-84
2022/04/06 08:28:37;;;;;;;6.63;5.10;;;;;;;;;;4993829;28;20212;-84
2022/04/06 08:31:06;;;;;;;8.20;5.60;;;;;;;;;;4992611;28;20297;-84
2022/04/06 08:33:33;;;;;;;11.30;6.17;;;;;;;;;;5001875;28;20227;-84
2022/04/06 08:36:00;;;;;;;6.17;5.00;;;;;;;;;;5010181;28;20616;-84
2022/04/06 08:38:27;;;;;;;9.80;6.07;;;;;;;;;;5006832;28;20240;-84
2022/04/06 08:40:54;;;;;;;7.27;5.87;;;;;;;;;;4992908;28;20240;-84
2022/04/06 08:43:22;;;;;;;11.07;5.97;;;;;;;;;;5013248;28;20246;-84
2022/04/06 08:45:50;;;;;;;7.83;5.47;;;;;;;;;;5012377;28;20258;-84
2022/04/06 08:48:22;;;;;;;6.13;4.90;;;;;;;;;;4998740;28;20713;-84
2022/04/06 08:50:50;;;;;;;9.27;4.50;;;;;;;;;;4992975;28;20244;-84
2022/04/06 08:53:21;;;;;;;7.10;4.73;;;;;;;;;;4993053;28;20338;-84
2022/04/06 08:55:48;;;;;;;5.77;4.87;;;;;;;;;;4992859;28;20279;-84
2022/04/06 08:58:15;;;;;;;6.33;4.13;;;;;;;;;;4994264;28;20232;-85
2022/04/06 09:00:43;;;;;;;9.67;4.30;;;;;;;;;;4993031;28;20319;-84
2022/04/06 09:03:11;;;;;;;4.40;3.87;;;;;;;;;;4998823;28;20200;-85
2022/04/06 09:05:40;;;;;;;7.03;3.47;;;;;;;;;;4995167;28;20305;-85
2022/04/06 09:08:07;;;;;;;6.53;4.30;;;;;;;;;;4995226;28;20208;-84
2022/04/06 09:10:35;;;;;;;7.33;4.20;;;;;;;;;;4994726;28;20246;-84
2022/04/06 09:13:08;;;;;;;8.10;4.20;;;;;;;;;;4997241;28;20560;-83
2022/04/06 09:15:35;;;;;;;7.40;4.00;;;;;;;;;;4994123;28;20236;-83
2022/04/06 09:18:03;;;;;;;4.60;3.53;;;;;;;;;;4996769;28;20231;-85
2022/04/06 09:20:31;;;;;;;7.50;4.10;;;;;;;;;;4996684;28;20239;-84
2022/04/06 09:23:02;;;;;;;6.70;3.67;;;;;;;;;;4977108;28;20228;-83
2022/04/06 09:25:34;;;;;;;6.57;4.27;;;;;;;;;;4974864;28;20242;-86
2022/04/06 09:28:06;;;;;;;7.17;3.60;;;;;;;;;;4974607;28;20189;-85
2022/04/06 09:30:34;;;;;;;6.23;4.20;;;;;;;;;;4972938;28;20267;-84
2022/04/06 09:33:02;;;;;;;8.67;4.40;;;;;;;;;;4974221;28;20217;-84
2022/04/06 09:35:32;;;;;;;6.77;4.00;;;;;;;;;;4972636;28;20291;-85
2022/04/06 09:38:13;;;;;;;6.23;4.03;;;;;;;;;;4973292;28;20295;-84
2022/04/06 09:40:40;;;;;;;5.87;4.00;;;;;;;;;;4973652;28;20241;-85
2022/04/06 09:43:07;;;;;;;7.10;4.23;;;;;;;;;;4977885;28;20209;-84
2022/04/06 09:48:20;;;;;;;5.00;4.00;;;;;;;;;;5024810;28;20765;-86
2022/04/06 09:50:57;;;;;;;7.07;4.53;;;;;;;;;;5016925;28;20704;-83
2022/04/06 09:53:26;;;;;;;9.07;4.67;;;;;;;;;;5017238;28;20207;-83
2022/04/06 09:55:54;;;;;;;8.70;4.90;;;;;;;;;;5016612;28;20239;-84
2022/04/06 09:58:22;;;;;;;5.90;3.97;;;;;;;;;;5016894;28;20278;-83
2022/04/06 10:00:49;;;;;;;6.07;4.57;;;;;;;;;;5017733;28;20249;-84
2022/04/06 10:03:18;;;;;;;6.17;4.60;;;;;;;;;;5002553;28;20204;-84
2022/04/06 10:05:45;;;;;;;7.03;5.00;;;;;;;;;;4996766;28;20282;-84
2022/04/06 10:08:12;;;;;;;5.47;4.57;;;;;;;;;;4996237;28;20200;-83
2022/04/06 10:10:42;;;;;;;6.80;4.50;;;;;;;;;;4996647;28;20247;-84
2022/04/06 10:13:09;;;;;;;9.20;5.07;;;;;;;;;;4996452;28;20227;-84
2022/04/06 10:15:37;;;;;;;8.63;5.53;;;;;;;;;;4995742;28;20239;-84
2022/04/06 10:18:05;;;;;;;5.30;4.03;;;;;;;;;;4996263;28;20231;-83
2022/04/06 10:20:37;;;;;;;6.13;4.37;;;;;;;;;;4995450;28;20232;-84
2022/04/06 10:23:09;;;;;;;5.83;4.43;;;;;;;;;;4996568;28;20188;-85
2022/04/06 10:25:42;;;;;;;4.30;3.60;;;;;;;;;;4995525;28;20294;-84
2022/04/06 10:28:13;;;;;;;5.00;4.50;;;;;;;;;;4996534;28;20222;-84
2022/04/06 10:30:40;;;;;;;5.93;4.10;;;;;;;;;;4995011;28;20881;-84
2022/04/06 10:33:20;;;;;;;5.70;4.33;;;;;;;;;;4995791;28;20227;-84
2022/04/06 10:35:47;;;;;;;5.77;4.00;;;;;;;;;;4995830;28;20266;-84
2022/04/06 10:38:15;;;;;;;4.17;2.70;;;;;;;;;;4997249;28;20224;-84
2022/04/06 10:40:59;;;;;;;6.60;3.40;;;;;;;;;;4995324;28;20258;-84
2022/04/06 10:43:44;;;;;;;4.93;3.60;;;;;;;;;;4976010;28;20212;-84
2022/04/06 10:46:17;;;;;;;7.10;3.83;;;;;;;;;;4975676;28;20633;-84
2022/04/06 10:48:57;;;;;;;4.57;3.90;;;;;;;;;;4976106;28;20201;-83
2022/04/06 10:51:28;;;;;;;4.17;3.23;;;;;;;;;;4989637;28;20263;-83
2022/04/06 10:53:55;;;;;;;4.90;3.90;;;;;;;;;;5010988;28;20656;-83
2022/04/06 10:56:23;;;;;;;5.40;3.73;;;;;;;;;;5014473;28;20235;-83
2022/04/06 10:59:09;;;;;;;4.87;3.67;;;;;;;;;;4981228;28;20228;-83
2022/04/06 11:01:45;;;;;;;6.63;3.80;;;;;;;;;;4975116;28;20291;-84
2022/04/06 11:04:17;;;;;;;3.83;3.30;;;;;;;;;;4977573;28;20244;-83
2022/04/06 11:06:55;;;;;;;5.37;3.63;;;;;;;;;;4997820;28;20232;-83
2022/04/06 11:12:11;;;;;;;4.33;3.07;;;;;;;;;;4994203;28;20242;-83
2022/04/06 11:14:38;;;;;;;3.07;2.77;;;;;;;;;;4994884;28;20636;-83
2022/04/06 11:17:20;;;;;;;5.27;3.00;;;;;;;;;;4999450;28;20240;-83
2022/04/06 11:19:51;;;;;;;3.30;3.00;;;;;;;;;;5016576;28;20200;-84
2022/04/06 11:22:22;;;;;;;4.83;3.30;;;;;;;;;;4993841;28;20287;-84
2022/04/06 11:24:50;;;;;;;7.37;3.50;;;;;;;;;;4989592;28;20204;-83
2022/04/06 11:27:27;;;;;;;3.63;3.00;;;;;;;;;;4985643;28;20551;-83
2022/04/06 11:29:59;;;;;;;4.37;3.17;;;;;;;;;;4994287;28;20775;-83
2022/04/06 11:32:26;;;;;;;4.73;2.60;;;;;;;;;;4994604;28;20240;-83
2022/04/06 11:34:59;;;;;;;3.63;2.70;;;;;;;;;;4993075;28;20218;-82
2022/04/06 11:37:26;;;;;;;4.27;2.37;;;;;;;;;;4994705;28;20323;-84
2022/04/06 11:39:57;;;;;;;6.53;3.60;;;;;;;;;;4993638;28;20212;-83
2022/04/06 11:42:24;;;;;;;4.57;2.63;;;;;;;;;;4994787;28;20224;-83
2022/04/06 11:44:52;;;;;;;4.77;2.60;;;;;;;;;;4993451;28;20242;-83
2022/04/06 11:47:27;;;;;;;4.20;2.80;;;;;;;;;;4994291;28;20184;-83
2022/04/06 11:49:56;;;;;;;4.27;2.80;;;;;;;;;;4994706;28;20200;-85
2022/04/06 11:52:23;;;;;;;5.33;2.40;;;;;;;;;;4995373;28;20220;-83
2022/04/06 11:54:54;;;;;;;4.63;2.67;;;;;;;;;;4994047;28;20219;-84
2022/04/06 11:57:21;;;;;;;3.73;2.43;;;;;;;;;;4988969;28;20227;-83
2022/04/06 11:59:55;;;;;;;4.13;2.50;;;;;;;;;;5000995;28;20203;-84
2022/04/06 12:02:22;;;;;;;4.60;2.70;;;;;;;;;;5004076;28;20236;-83
2022/04/06 12:05:01;;;;;;;4.93;2.33;;;;;;;;;;5009069;28;20196;-83
2022/04/06 12:07:29;;;;;;;5.23;2.77;;;;;;;;;;5013424;28;20203;-83
2022/04/06 12:09:56;;;;;;;5.30;3.20;;;;;;;;;;5012788;28;20207;-83
2022/04/06 12:12:24;;;;;;;5.10;2.63;;;;;;;;;;5013692;28;20767;-83
2022/04/06 12:14:51;;;;;;;3.77;2.60;;;;;;;;;;5013024;28;20213;-82
2022/04/06 12:17:19;;;;;;;4.33;3.27;;;;;;;;;;5013200;28;20203;-82
2022/04/06 12:19:46;;;;;;;3.43;2.53;;;;;;;;;;5012852;28;20699;-83
2022/04/06 12:22:14;;;;;;;4.07;2.50;;;;;;;;;;5012587;28;20703;-83
2022/04/06 12:24:43;;;;;;;4.83;2.60;;;;;;;;;;5013161;28;20294;-83
2022/04/06 12:27:10;;;;;;;6.03;2.70;;;;;;;;;;5000936;28;20259;-83
2022/04/06 12:29:39;;;;;;;4.70;2.90;;;;;;;;;;4993427;28;20219;-83
2022/04/06 12:32:08;;;;;;;4.57;2.77;;;;;;;;;;4986062;28;20236;-83
2022/04/06 12:34:36;;;;;;;2.90;2.40;;;;;;;;;;4997075;28;20287;-83
2022/04/06 12:39:50;;;;;;;4.07;3.03;;;;;;;;;;4999391;28;20203;-83
2022/04/06 12:42:18;;;;;;;6.65;2.70;;;;;;;;;;5012971;28;20293;-83
2022/04/06 12:44:56;;;;;;;4.95;2.95;;;;;;;;;;5001719;28;20227;-83
2022/04/06 12:47:24;;;;;;;5.90;3.10;;;;;;;;;;4993052;28;20286;-83
2022/04/06 12:49:51;;;;;;;5.63;2.50;;;;;;;;;;5000290;28;20239;-83
2022/04/06 12:52:19;;;;;;;3.25;2.40;;;;;;;;;;5012883;28;20234;-84
2022/04/06 12:54:48;;;;;;;3.60;2.40;;;;;;;;;;5012650;28;20207;-83
2022/04/06 12:57:18;;;;;;;4.60;2.38;;;;;;;;;;5012067;28;20223;-83
2022/04/06 12:59:47;;;;;;;3.75;2.33;;;;;;;;;;5013447;28;20639;-81
2022/04/06 13:02:21;;;;;;;3.63;2.13;;;;;;;;;;5013284;28;20237;-83
2022/04/06 13:04:48;;;;;;;3.70;2.20;;;;;;;;;;5013156;28;20207;-83
2022/04/06 13:07:15;;;;;;;3.40;2.03;;;;;;;;;;5012593;28;20227;-83
2022/04/06 13:09:50;;;;;;;5.43;2.30;;;;;;;;;;5012351;28;20608;-83
2022/04/06 13:12:18;;;;;;;3.58;1.92;;;;;;;;;;5012132;28;20253;-83
2022/04/06 13:14:45;;;;;;;5.53;2.40;;;;;;;;;;5012780;28;20199;-84
2022/04/06 13:17:12;;;;;;;3.80;2.20;;;;;;;;;;5012256;28;20612;-83
2022/04/06 13:19:39;;;;;;;3.58;2.25;;;;;;;;;;5009657;28;20586;-83
2022/04/06 13:22:06;;;;;;;3.15;2.40;;;;;;;;;;4994197;28;20236;-83
2022/04/06 13:24:34;;;;;;;2.97;2.17;;;;;;;;;;4993516;28;20216;-83
2022/04/06 13:27:02;;;;;;;2.80;2.20;;;;;;;;;;4992295;28;20235;-83
2022/04/06 13:29:30;;;;;;;6.20;2.50;;;;;;;;;;4992640;28;20645;-84
2022/04/06 13:31:57;;;;;;;3.67;2.00;;;;;;;;;;4992271;28;20242;-83
2022/04/06 13:34:25;;;;;;;4.25;2.75;;;;;;;;;;4992857;28;20212;-82
2022/04/06 13:36:52;;;;;;;2.78;2.17;;;;;;;;;;4992673;28;20318;-84
2022/04/06 13:39:20;;;;;;;4.55;2.17;;;;;;;;;;4992613;28;20582;-84
2022/04/06 13:41:52;;;;;;;2.13;1.67;;;;;;;;;;4991578;28;20236;-84
2022/04/06 13:44:21;;;;;;;3.60;2.20;;;;;;;;;;4991675;28;20220;-84
2022/04/06 13:46:51;;;;;;;2.85;1.90;;;;;;;;;;4982999;28;20653;-83
2022/04/06 13:49:18;;;;;;;3.85;1.98;;;;;;;;;;4996078;28;20253;-84
2022/04/06 13:51:45;;;;;;;1.55;1.17;;;;;;;;;;5011763;28;20246;-83
2022/04/06 13:54:13;;;;;;;3.50;1.73;;;;;;;;;;5012885;28;20266;-83
2022/04/06 13:56:40;;;;;;;2.55;1.73;;;;;;;;;;5011940;28;20246;-83
2022/04/06 13:59:07;;;;;;;2.03;1.52;;;;;;;;;;5012863;28;20255;-83
2022/04/06 14:01:35;;;;;;;2.97;1.73;;;;;;;;;;5002006;28;20242;-83
2022/04/06 14:04:04;;;;;;;3.40;1.75;;;;;;;;;;4992669;28;20196;-83
2022/04/06 14:06:31;;;;;;;1.90;1.60;;;;;;;;;;4992150;28;20232;-83
2022/04/06 14:08:58;;;;;;;3.25;1.48;;;;;;;;;;4992782;28;20200;-83
2022/04/06 14:11:26;;;;;;;3.03;1.40;;;;;;;;;;4991290;28;20232;-84
2022/04/06 14:13:53;;;;;;;2.70;1.70;;;;;;;;;;5004140;28;20211;-85
2022/04/06 14:16:20;;;;;;;1.30;1.20;;;;;;;;;;4987675;28;20234;-86
2022/04/06 14:18:48;;;;;;;2.17;1.20;;;;;;;;;;5005183;28;20231;-84
2022/04/06 14:21:18;;;;;;;2.00;1.40;;;;;;;;;;4994577;28;20239;-84
2022/04/06 14:23:45;;;;;;;2.25;1.48;;;;;;;;;;5024904;23;20231;-88
2022/04/06 14:26:12;;;;;;;2.63;1.15;;;;;;;;;;5031471;28;20242;-88
2022/04/06 14:28:40;;;;;;;2.28;1.30;;;;;;;;;;5035590;28;20207;-87
2022/04/06 14:31:08;;;;;;;1.90;1.10;;;;;;;;;;5035276;28;20625;-86
2022/04/06 14:33:36;;;;;;;2.88;1.40;;;;;;;;;;5025561;28;20231;-86
2022/04/06 14:36:03;;;;;;;2.22;1.30;;;;;;;;;;4985054;28;20236;-89
2022/04/06 14:38:32;;;;;;;2.10;1.15;;;;;;;;;;4977159;28;20229;-89
2022/04/06 14:40:59;;;;;;;1.65;1.38;;;;;;;;;;4994999;28;20266;-87
2022/04/06 14:43:28;;;;;;;3.88;1.27;;;;;;;;;;4990989;28;20216;-87
2022/04/06 14:45:56;;;;;;;1.65;1.10;;;;;;;;;;4982410;28;20232;-88
2022/04/06 14:48:26;;;;;;;1.75;1.50;;;;;;;;;;4996291;28;20222;-89
2022/04/06 14:50:53;;;;;;;1.42;1.10;;;;;;;;;;4995709;28;20704;-89
2022/04/06 14:53:20;;;;;;;0.95;0.95;;;;;;;;;;4996395;28;20232;-89
2022/04/06 14:55:49;;;;;;;1.20;1.10;;;;;;;;;;4996930;28;20231;-89
2022/04/06 14:58:16;;;;;;;2.05;1.50;;;;;;;;;;4983875;28;20288;-90